首页
METAR-TAF:

METAR-TAF

机场 :

诺曼·曼利国际机场

京斯敦, 牙买加

纬度: 17-56N, 经度: 076-47W, 海拔: 3米

当前天气观测

该预报发布于16分钟前的21:00 UTC
风速18节,风向东南
温度 30°C
湿度 75%
气压 1013 hPa
能见度10公里或以上
少量云层高于2200英尺
少量云层高于2400英尺, 积雨云.

METAR: MKJP 182100Z 14018KT 9999 FEW022 FEW024CB 30/25 Q1013

时间: 16:16 (21:16 UTC)

预报

该预报发布于4小时和1分钟前的17:15 UTC
预报有效从18日的 18点(UTC)到 19日的 18点(UTC)
风速20节,风向东南
能见度10公里或以上
少量云层高于2200英尺
成为
从 19日的 03点(UTC)到 19日的 05点(UTC)
风速5节,风向北转西北
成为
从 19日的 14点(UTC)到 19日的 16点(UTC)
风速20节,风向东南

TAF: MKJP 181715Z 1818/1918 14020KT 9999 FEW022 BECMG 1903/1905 33005KT BECMG 1914/1916 14020KT

超过4000个机场的气象观测和天气预报(METAR&TAF报告)。

可查询的气象台以黄色和红色小点在地图上表示。

将鼠标移到小点上方,可查看气象台名称。

然后点击查看天气观测和预报。

如需切换地图:点击带黑十字的绿色按钮放大地图;点击带横线的绿色按钮缩小地图;或者点击绿色箭头查看邻近地区的地图。


METAR-TAF: